sensor_id;sensor_type;location;lat;lon;timestamp;temperature;humidity
20504;DHT22;10410;51.046;6.980;2022-09-30T00:06:14;6.50;99.90
20504;DHT22;10410;51.046;6.980;2022-09-30T00:13:14;6.40;99.90
20504;DHT22;10410;51.046;6.980;2022-09-30T00:20:15;6.30;99.90
20504;DHT22;10410;51.046;6.980;2022-09-30T00:27:17;6.20;99.90
20504;DHT22;10410;51.046;6.980;2022-09-30T00:34:19;6.20;99.90
20504;DHT22;10410;51.046;6.980;2022-09-30T00:41:22;6.20;99.90
20504;DHT22;10410;51.046;6.980;2022-09-30T00:48:29;6.10;99.90
20504;DHT22;10410;51.046;6.980;2022-09-30T01:02:35;5.90;99.90
20504;DHT22;10410;51.046;6.980;2022-09-30T01:09:38;5.90;99.90
20504;DHT22;10410;51.046;6.980;2022-09-30T01:17:00;5.80;99.90
20504;DHT22;10410;51.046;6.980;2022-09-30T01:38:54;5.80;99.90
20504;DHT22;10410;51.046;6.980;2022-09-30T01:46:04;5.80;99.90
20504;DHT22;10410;51.046;6.980;2022-09-30T01:53:18;5.70;99.90
20504;DHT22;10410;51.046;6.980;2022-09-30T02:00:21;5.70;99.90
20504;DHT22;10410;51.046;6.980;2022-09-30T02:07:37;5.70;99.90
20504;DHT22;10410;51.046;6.980;2022-09-30T02:14:51;5.60;99.90
20504;DHT22;10410;51.046;6.980;2022-09-30T02:22:03;5.60;99.90
20504;DHT22;10410;51.046;6.980;2022-09-30T02:29:15;5.50;99.90
20504;DHT22;10410;51.046;6.980;2022-09-30T02:43:20;5.40;99.90
20504;DHT22;10410;51.046;6.980;2022-09-30T02:51:10;5.30;99.90
20504;DHT22;10410;51.046;6.980;2022-09-30T02:58:13;5.20;99.90
20504;DHT22;10410;51.046;6.980;2022-09-30T03:05:15;5.20;99.90
20504;DHT22;10410;51.046;6.980;2022-09-30T03:12:31;5.10;99.90
20504;DHT22;10410;51.046;6.980;2022-09-30T03:19:53;5.10;99.90
20504;DHT22;10410;51.046;6.980;2022-09-30T03:34:29;5.20;99.90
20504;DHT22;10410;51.046;6.980;2022-09-30T03:42:06;5.10;99.90
20504;DHT22;10410;51.046;6.980;2022-09-30T03:49:22;5.10;99.90
20504;DHT22;10410;51.046;6.980;2022-09-30T03:56:25;5.10;99.90
20504;DHT22;10410;51.046;6.980;2022-09-30T04:03:26;5.10;99.90
20504;DHT22;10410;51.046;6.980;2022-09-30T04:10:27;5.10;99.90
20504;DHT22;10410;51.046;6.980;2022-09-30T04:17:28;5.00;99.90
20504;DHT22;10410;51.046;6.980;2022-09-30T04:24:28;5.00;99.90
20504;DHT22;10410;51.046;6.980;2022-09-30T04:31:29;5.00;99.90
20504;DHT22;10410;51.046;6.980;2022-09-30T04:38:29;5.00;99.90
20504;DHT22;10410;51.046;6.980;2022-09-30T04:45:30;5.00;99.90
20504;DHT22;10410;51.046;6.980;2022-09-30T04:52:31;5.00;99.90
20504;DHT22;10410;51.046;6.980;2022-09-30T04:59:31;5.00;99.90
20504;DHT22;10410;51.046;6.980;2022-09-30T05:06:33;5.00;99.90
20504;DHT22;10410;51.046;6.980;2022-09-30T05:13:36;5.10;99.90
20504;DHT22;10410;51.046;6.980;2022-09-30T05:20:37;5.00;99.90
20504;DHT22;10410;51.046;6.980;2022-09-30T05:27:38;5.10;99.90
20504;DHT22;10410;51.046;6.980;2022-09-30T05:34:39;5.00;99.90
20504;DHT22;10410;51.046;6.980;2022-09-30T05:41:39;4.90;99.90
20504;DHT22;10410;51.046;6.980;2022-09-30T05:48:39;4.90;99.90
20504;DHT22;10410;51.046;6.980;2022-09-30T05:55:44;4.80;99.90
20504;DHT22;10410;51.046;6.980;2022-09-30T06:02:45;4.80;99.90
20504;DHT22;10410;51.046;6.980;2022-09-30T06:09:49;4.80;99.90
20504;DHT22;10410;51.046;6.980;2022-09-30T06:16:50;4.80;99.90
20504;DHT22;10410;51.046;6.980;2022-09-30T06:23:50;4.80;99.90
20504;DHT22;10410;51.046;6.980;2022-09-30T06:30:50;4.90;99.90
20504;DHT22;10410;51.046;6.980;2022-09-30T06:37:51;4.90;99.90
20504;DHT22;10410;51.046;6.980;2022-09-30T06:44:51;5.00;99.90
20504;DHT22;10410;51.046;6.980;2022-09-30T06:51:53;5.20;99.90
20504;DHT22;10410;51.046;6.980;2022-09-30T06:58:55;5.30;99.90
20504;DHT22;10410;51.046;6.980;2022-09-30T07:06:01;5.40;99.90
20504;DHT22;10410;51.046;6.980;2022-09-30T07:13:01;5.60;99.90
20504;DHT22;10410;51.046;6.980;2022-09-30T07:20:02;5.80;99.90
20504;DHT22;10410;51.046;6.980;2022-09-30T07:27:02;6.00;99.90
20504;DHT22;10410;51.046;6.980;2022-09-30T07:34:03;6.30;99.90
20504;DHT22;10410;51.046;6.980;2022-09-30T07:41:15;6.50;99.90
20504;DHT22;10410;51.046;6.980;2022-09-30T07:48:16;6.80;99.90
20504;DHT22;10410;51.046;6.980;2022-09-30T07:55:35;7.00;99.90
20504;DHT22;10410;51.046;6.980;2022-09-30T08:02:36;7.30;99.90
20504;DHT22;10410;51.046;6.980;2022-09-30T08:09:36;7.50;99.90
20504;DHT22;10410;51.046;6.980;2022-09-30T08:16:37;7.70;99.90
20504;DHT22;10410;51.046;6.980;2022-09-30T08:23:37;7.90;99.90
20504;DHT22;10410;51.046;6.980;2022-09-30T08:30:38;8.20;99.90
20504;DHT22;10410;51.046;6.980;2022-09-30T08:37:40;8.50;99.90
20504;DHT22;10410;51.046;6.980;2022-09-30T08:44:43;8.90;99.90
20504;DHT22;10410;51.046;6.980;2022-09-30T08:51:45;9.20;99.90
20504;DHT22;10410;51.046;6.980;2022-09-30T08:58:49;9.50;99.90
20504;DHT22;10410;51.046;6.980;2022-09-30T09:20:17;10.30;99.90
20504;DHT22;10410;51.046;6.980;2022-09-30T09:27:24;10.60;99.90
20504;DHT22;10410;51.046;6.980;2022-09-30T09:34:25;10.80;99.90
20504;DHT22;10410;51.046;6.980;2022-09-30T09:41:35;11.00;99.90
20504;DHT22;10410;51.046;6.980;2022-09-30T09:48:38;11.20;99.90
20504;DHT22;10410;51.046;6.980;2022-09-30T09:55:38;11.30;99.90
20504;DHT22;10410;51.046;6.980;2022-09-30T10:02:39;11.70;99.90
20504;DHT22;10410;51.046;6.980;2022-09-30T10:09:41;12.00;99.90
20504;DHT22;10410;51.046;6.980;2022-09-30T10:16:42;12.20;99.90
20504;DHT22;10410;51.046;6.980;2022-09-30T10:23:42;12.50;99.90
20504;DHT22;10410;51.046;6.980;2022-09-30T10:31:04;12.70;99.90
20504;DHT22;10410;51.046;6.980;2022-09-30T10:38:08;13.00;99.90
20504;DHT22;10410;51.046;6.980;2022-09-30T10:45:38;13.20;99.90
20504;DHT22;10410;51.046;6.980;2022-09-30T10:52:49;13.40;99.90
20504;DHT22;10410;51.046;6.980;2022-09-30T11:07:14;13.80;99.90
20504;DHT22;10410;51.046;6.980;2022-09-30T11:14:32;14.00;99.90
20504;DHT22;10410;51.046;6.980;2022-09-30T11:36:29;14.80;99.90
20504;DHT22;10410;51.046;6.980;2022-09-30T11:51:17;15.30;99.90
20504;DHT22;10410;51.046;6.980;2022-09-30T11:58:25;15.40;99.90
20504;DHT22;10410;51.046;6.980;2022-09-30T12:05:47;15.60;99.90
20504;DHT22;10410;51.046;6.980;2022-09-30T12:12:55;15.80;99.90
20504;DHT22;10410;51.046;6.980;2022-09-30T12:20:04;15.70;99.90
20504;DHT22;10410;51.046;6.980;2022-09-30T12:27:32;15.90;99.90
20504;DHT22;10410;51.046;6.980;2022-09-30T12:34:55;15.90;99.90
20504;DHT22;10410;51.046;6.980;2022-09-30T12:42:17;15.90;99.90
20504;DHT22;10410;51.046;6.980;2022-09-30T12:49:23;15.90;99.90
20504;DHT22;10410;51.046;6.980;2022-09-30T12:56:27;16.20;99.90
20504;DHT22;10410;51.046;6.980;2022-09-30T13:03:47;17.00;99.90
20504;DHT22;10410;51.046;6.980;2022-09-30T13:10:59;17.70;99.90
20504;DHT22;10410;51.046;6.980;2022-09-30T13:25:19;17.90;99.90
20504;DHT22;10410;51.046;6.980;2022-09-30T13:32:34;18.30;99.90
20504;DHT22;10410;51.046;6.980;2022-09-30T13:39:47;19.00;99.90
20504;DHT22;10410;51.046;6.980;2022-09-30T13:46:52;19.50;99.90
20504;DHT22;10410;51.046;6.980;2022-09-30T13:53:57;19.70;99.90
20504;DHT22;10410;51.046;6.980;2022-09-30T14:08:48;20.20;99.90
20504;DHT22;10410;51.046;6.980;2022-09-30T14:23:02;21.30;99.90
20504;DHT22;10410;51.046;6.980;2022-09-30T14:37:40;20.90;99.70
20504;DHT22;10410;51.046;6.980;2022-09-30T14:44:41;22.60;98.70
20504;DHT22;10410;51.046;6.980;2022-09-30T14:51:44;24.60;93.30
20504;DHT22;10410;51.046;6.980;2022-09-30T14:58:46;25.10;80.70
20504;DHT22;10410;51.046;6.980;2022-09-30T15:05:49;24.80;80.20
20504;DHT22;10410;51.046;6.980;2022-09-30T15:12:51;25.10;81.80
20504;DHT22;10410;51.046;6.980;2022-09-30T15:19:52;24.80;81.70
20504;DHT22;10410;51.046;6.980;2022-09-30T15:26:54;24.50;78.20
20504;DHT22;10410;51.046;6.980;2022-09-30T15:34:16;23.60;78.20
20504;DHT22;10410;51.046;6.980;2022-09-30T15:41:23;22.50;82.50
20504;DHT22;10410;51.046;6.980;2022-09-30T15:55:36;20.60;86.20
20504;DHT22;10410;51.046;6.980;2022-09-30T16:02:37;19.70;90.40
20504;DHT22;10410;51.046;6.980;2022-09-30T16:09:41;19.20;90.70
20504;DHT22;10410;51.046;6.980;2022-09-30T16:16:47;18.90;91.00
20504;DHT22;10410;51.046;6.980;2022-09-30T16:23:49;18.50;91.50
20504;DHT22;10410;51.046;6.980;2022-09-30T16:30:51;18.30;92.10
20504;DHT22;10410;51.046;6.980;2022-09-30T16:38:04;18.10;92.80
20504;DHT22;10410;51.046;6.980;2022-09-30T16:45:05;17.90;93.30
20504;DHT22;10410;51.046;6.980;2022-09-30T16:52:06;17.70;93.70
20504;DHT22;10410;51.046;6.980;2022-09-30T16:59:09;17.50;94.00
20504;DHT22;10410;51.046;6.980;2022-09-30T17:06:17;17.40;94.20
20504;DHT22;10410;51.046;6.980;2022-09-30T17:13:18;17.10;95.10
20504;DHT22;10410;51.046;6.980;2022-09-30T17:20:19;17.10;95.70
20504;DHT22;10410;51.046;6.980;2022-09-30T17:27:20;16.90;96.30
20504;DHT22;10410;51.046;6.980;2022-09-30T17:34:20;16.80;97.00
20504;DHT22;10410;51.046;6.980;2022-09-30T17:41:21;16.60;97.50
20504;DHT22;10410;51.046;6.980;2022-09-30T17:48:40;16.50;98.10
20504;DHT22;10410;51.046;6.980;2022-09-30T17:55:42;16.30;98.70
20504;DHT22;10410;51.046;6.980;2022-09-30T18:02:45;16.20;99.10
20504;DHT22;10410;51.046;6.980;2022-09-30T18:09:47;15.90;99.20
20504;DHT22;10410;51.046;6.980;2022-09-30T18:16:47;15.80;99.30
20504;DHT22;10410;51.046;6.980;2022-09-30T18:23:50;15.60;99.60
20504;DHT22;10410;51.046;6.980;2022-09-30T18:30:50;15.40;99.90
20504;DHT22;10410;51.046;6.980;2022-09-30T18:37:52;15.30;99.90
20504;DHT22;10410;51.046;6.980;2022-09-30T18:44:52;15.20;99.90
20504;DHT22;10410;51.046;6.980;2022-09-30T18:51:53;15.10;99.90
20504;DHT22;10410;51.046;6.980;2022-09-30T18:58:54;15.00;99.90
20504;DHT22;10410;51.046;6.980;2022-09-30T19:05:55;14.80;99.90
20504;DHT22;10410;51.046;6.980;2022-09-30T19:12:56;14.60;99.90
20504;DHT22;10410;51.046;6.980;2022-09-30T19:20:00;14.40;99.90
20504;DHT22;10410;51.046;6.980;2022-09-30T19:27:01;14.30;99.90
20504;DHT22;10410;51.046;6.980;2022-09-30T19:34:02;14.20;99.90
20504;DHT22;10410;51.046;6.980;2022-09-30T19:41:04;14.00;99.90
20504;DHT22;10410;51.046;6.980;2022-09-30T19:48:05;13.90;99.90
20504;DHT22;10410;51.046;6.980;2022-09-30T19:55:07;13.70;99.90
20504;DHT22;10410;51.046;6.980;2022-09-30T20:02:16;13.60;99.90
20504;DHT22;10410;51.046;6.980;2022-09-30T20:09:19;13.50;99.90
20504;DHT22;10410;51.046;6.980;2022-09-30T20:16:20;13.40;99.90
20504;DHT22;10410;51.046;6.980;2022-09-30T20:23:21;13.40;99.90
20504;DHT22;10410;51.046;6.980;2022-09-30T20:30:22;13.30;99.90
20504;DHT22;10410;51.046;6.980;2022-09-30T20:37:23;13.20;99.90
20504;DHT22;10410;51.046;6.980;2022-09-30T20:44:27;13.20;99.90
20504;DHT22;10410;51.046;6.980;2022-09-30T20:51:30;13.10;99.90
20504;DHT22;10410;51.046;6.980;2022-09-30T20:58:31;12.90;99.90
20504;DHT22;10410;51.046;6.980;2022-09-30T21:05:32;12.70;99.90
20504;DHT22;10410;51.046;6.980;2022-09-30T21:12:33;12.50;99.90
20504;DHT22;10410;51.046;6.980;2022-09-30T21:19:34;12.20;99.90
20504;DHT22;10410;51.046;6.980;2022-09-30T21:26:35;12.10;99.90
20504;DHT22;10410;51.046;6.980;2022-09-30T21:33:38;12.10;99.90
20504;DHT22;10410;51.046;6.980;2022-09-30T21:40:38;12.00;99.90
20504;DHT22;10410;51.046;6.980;2022-09-30T21:47:39;11.90;99.90
20504;DHT22;10410;51.046;6.980;2022-09-30T21:54:39;11.90;99.90
20504;DHT22;10410;51.046;6.980;2022-09-30T22:01:40;11.90;99.90
20504;DHT22;10410;51.046;6.980;2022-09-30T22:08:41;11.90;99.90
20504;DHT22;10410;51.046;6.980;2022-09-30T22:15:42;11.90;99.90
20504;DHT22;10410;51.046;6.980;2022-09-30T22:22:45;11.90;99.90
20504;DHT22;10410;51.046;6.980;2022-09-30T22:29:49;11.90;99.90
20504;DHT22;10410;51.046;6.980;2022-09-30T22:36:49;11.90;99.90
20504;DHT22;10410;51.046;6.980;2022-09-30T22:44:09;11.90;99.90
20504;DHT22;10410;51.046;6.980;2022-09-30T22:51:14;11.80;99.90
20504;DHT22;10410;51.046;6.980;2022-09-30T22:58:15;11.80;99.90
20504;DHT22;10410;51.046;6.980;2022-09-30T23:05:15;11.80;99.90
20504;DHT22;10410;51.046;6.980;2022-09-30T23:12:16;11.80;99.90
20504;DHT22;10410;51.046;6.980;2022-09-30T23:19:18;11.80;99.90
20504;DHT22;10410;51.046;6.980;2022-09-30T23:26:21;11.90;99.90
20504;DHT22;10410;51.046;6.980;2022-09-30T23:33:24;11.90;99.90
20504;DHT22;10410;51.046;6.980;2022-09-30T23:40:25;11.90;99.90
20504;DHT22;10410;51.046;6.980;2022-09-30T23:47:26;12.00;99.90
20504;DHT22;10410;51.046;6.980;2022-09-30T23:54:26;12.00;99.90
